createdAt,value
2023-04-22T00:00:41.604Z,5.60
2023-04-22T00:01:41.586Z,5.20
2023-04-22T00:02:41.648Z,5.30
2023-04-22T00:03:41.811Z,5.70
2023-04-22T00:04:41.859Z,5.80
2023-04-22T00:05:41.623Z,5.70
2023-04-22T00:06:41.516Z,5.90
2023-04-22T00:07:41.506Z,6.50
2023-04-22T00:08:41.510Z,5.40
2023-04-22T00:09:41.504Z,5.90
2023-04-22T00:10:41.494Z,5.60
2023-04-22T00:11:41.487Z,6.00
2023-04-22T00:12:41.478Z,5.90
2023-04-22T00:13:41.483Z,5.60
2023-04-22T00:14:41.443Z,5.80
2023-04-22T00:15:41.490Z,6.00
2023-04-22T00:16:41.481Z,5.50
2023-04-22T00:17:41.413Z,6.00
2023-04-22T00:18:41.407Z,6.00
2023-04-22T00:19:41.620Z,6.10
2023-04-22T00:20:41.403Z,6.30
2023-04-22T00:21:41.373Z,5.70
2023-04-22T00:22:41.359Z,6.00
2023-04-22T00:23:41.349Z,5.50
2023-04-22T00:24:41.426Z,5.90
2023-04-22T00:25:41.354Z,6.00
2023-04-22T00:26:41.326Z,6.20
2023-04-22T00:27:41.304Z,6.00
2023-04-22T00:28:41.300Z,6.20
2023-04-22T00:29:41.471Z,6.30
2023-04-22T00:30:41.290Z,6.50
2023-04-22T00:31:41.348Z,6.30
2023-04-22T00:32:41.290Z,6.30
2023-04-22T00:33:41.282Z,6.30
2023-04-22T00:34:41.220Z,6.40
2023-04-22T00:35:41.262Z,6.10
2023-04-22T00:36:41.205Z,6.50
2023-04-22T00:37:41.203Z,6.30
2023-04-22T00:38:41.187Z,6.50
2023-04-22T00:39:41.574Z,6.90
2023-04-22T00:40:41.213Z,6.30
2023-04-22T00:41:41.245Z,6.20
2023-04-22T00:42:41.167Z,6.30
2023-04-22T00:43:41.174Z,6.30
2023-04-22T00:44:41.175Z,6.30
2023-04-22T00:45:41.188Z,6.60
2023-04-22T00:46:41.208Z,6.60
2023-04-22T00:47:41.110Z,5.90
2023-04-22T00:48:41.088Z,6.10
2023-04-22T00:49:41.372Z,6.30
2023-04-22T00:50:41.175Z,6.60
2023-04-22T00:51:41.115Z,6.00
2023-04-22T00:52:41.038Z,5.50
2023-04-22T00:53:41.048Z,5.80
2023-04-22T00:54:41.046Z,5.40
2023-04-22T00:55:41.098Z,5.30
2023-04-22T00:56:41.038Z,6.30
2023-04-22T00:57:41.036Z,6.30
2023-04-22T00:58:41.025Z,6.20
2023-04-22T00:59:41.393Z,5.70
2023-04-22T01:00:41.056Z,5.70
2023-04-22T01:01:40.952Z,5.60
2023-04-22T01:02:41.041Z,5.80
2023-04-22T01:03:41.214Z,5.80
2023-04-22T01:04:40.916Z,6.00
2023-04-22T01:05:40.993Z,5.70
2023-04-22T01:06:40.902Z,5.50
2023-04-22T01:07:40.933Z,5.40
2023-04-22T01:08:40.899Z,5.10
2023-04-22T01:09:41.280Z,5.30
2023-04-22T01:10:40.887Z,5.20
2023-04-22T01:11:40.845Z,5.30
2023-04-22T01:12:40.842Z,5.10
2023-04-22T01:13:40.835Z,4.90
2023-04-22T01:14:40.859Z,4.50
2023-04-22T01:15:40.832Z,4.90
2023-04-22T01:16:40.832Z,5.10
2023-04-22T01:17:40.846Z,5.00
2023-04-22T01:18:40.793Z,5.20
2023-04-22T01:19:41.130Z,5.20
2023-04-22T01:20:40.784Z,4.90
2023-04-22T01:21:40.759Z,5.00
2023-04-22T01:22:40.741Z,5.50
2023-04-22T01:23:40.732Z,4.90
2023-04-22T01:24:40.742Z,5.20
2023-04-22T01:25:40.723Z,4.90
2023-04-22T01:26:40.695Z,5.40
2023-04-22T01:27:40.686Z,5.00
2023-04-22T01:28:40.682Z,4.90
2023-04-22T01:29:41.011Z,4.90
2023-04-22T01:30:40.677Z,5.20
2023-04-22T01:31:40.709Z,4.80
2023-04-22T01:32:40.673Z,5.30
2023-04-22T01:33:40.625Z,4.70
2023-04-22T01:34:40.617Z,4.80
2023-04-22T01:35:40.630Z,4.80
2023-04-22T01:36:40.621Z,5.00
2023-04-22T01:37:40.593Z,4.70
2023-04-22T01:38:40.583Z,5.00
2023-04-22T01:39:40.946Z,5.20
2023-04-22T01:40:40.598Z,5.10
2023-04-22T01:41:40.531Z,5.00
2023-04-22T01:42:40.528Z,5.10
2023-04-22T01:43:40.521Z,5.00
2023-04-22T01:44:40.511Z,5.10
2023-04-22T01:45:40.549Z,5.30
2023-04-22T01:46:40.510Z,5.20
2023-04-22T01:47:40.520Z,5.10
2023-04-22T01:48:40.500Z,5.30
2023-04-22T01:49:40.655Z,5.80
2023-04-22T01:50:40.469Z,5.80
2023-04-22T01:51:40.510Z,5.30
2023-04-22T01:52:40.419Z,5.60
2023-04-22T01:53:40.412Z,5.60
2023-04-22T01:54:40.391Z,5.60
2023-04-22T01:55:40.407Z,5.50
2023-04-22T01:56:40.407Z,5.50
2023-04-22T01:57:40.365Z,5.50
2023-04-22T01:58:40.404Z,5.30
2023-04-22T01:59:40.770Z,5.30
2023-04-22T02:00:40.389Z,5.30
2023-04-22T02:01:40.365Z,5.20
2023-04-22T02:02:40.403Z,5.50
2023-04-22T02:03:40.404Z,5.30
2023-04-22T02:04:40.301Z,5.20
2023-04-22T02:05:40.282Z,5.50
2023-04-22T02:06:40.329Z,5.50
2023-04-22T02:07:40.254Z,5.40
2023-04-22T02:08:40.253Z,5.50
2023-04-22T02:09:40.507Z,5.50
2023-04-22T02:10:40.234Z,5.60
2023-04-22T02:11:40.268Z,5.20
2023-04-22T02:12:40.226Z,4.90
2023-04-22T02:13:40.218Z,5.50
2023-04-22T02:14:40.216Z,5.40
2023-04-22T02:15:40.216Z,5.40
2023-04-22T02:16:40.241Z,5.80
2023-04-22T02:17:40.176Z,5.20
2023-04-22T02:18:40.173Z,5.50
2023-04-22T02:19:40.387Z,5.40
2023-04-22T02:20:40.166Z,5.20
2023-04-22T02:21:40.213Z,5.40
2023-04-22T02:22:40.099Z,5.90
2023-04-22T02:23:40.147Z,5.00
2023-04-22T02:24:40.103Z,5.30
2023-04-22T02:25:40.099Z,5.40
2023-04-22T02:26:40.111Z,5.50
2023-04-22T02:27:40.116Z,5.60
2023-04-22T02:28:40.069Z,5.90
2023-04-22T02:29:40.415Z,6.30
2023-04-22T02:30:40.057Z,6.00
2023-04-22T02:31:40.074Z,5.80
2023-04-22T02:32:40.044Z,5.70
2023-04-22T02:34:34.135Z,5.80
2023-04-22T02:35:35.111Z,5.70
2023-04-22T02:36:35.154Z,5.60
2023-04-22T02:37:35.092Z,5.60
2023-04-22T02:38:35.096Z,5.90
2023-04-22T02:39:35.072Z,6.10
2023-04-22T02:40:35.098Z,6.00
2023-04-22T02:41:35.085Z,6.20
2023-04-22T02:42:35.049Z,5.90
2023-04-22T02:43:35.029Z,5.70
2023-04-22T02:44:35.004Z,5.90
2023-04-22T02:45:35.000Z,5.90
2023-04-22T02:46:35.058Z,5.60
2023-04-22T02:47:34.988Z,5.70
2023-04-22T02:48:34.989Z,5.80
2023-04-22T02:49:34.954Z,5.60
2023-04-22T02:50:34.947Z,5.90
2023-04-22T02:51:34.994Z,5.90
2023-04-22T02:52:34.946Z,6.20
2023-04-22T02:53:34.921Z,6.00
2023-04-22T02:54:34.910Z,6.40
2023-04-22T02:55:34.899Z,6.00
2023-04-22T02:56:34.921Z,6.10
2023-04-22T02:57:34.875Z,5.80
2023-04-22T02:58:34.869Z,6.10
2023-04-22T02:59:34.864Z,5.80
2023-04-22T03:00:34.874Z,5.70
2023-04-22T03:01:34.914Z,5.90
2023-04-22T03:02:34.912Z,5.90
2023-04-22T03:03:35.045Z,6.00
2023-04-22T03:04:34.901Z,6.00
2023-04-22T03:05:34.787Z,6.00
2023-04-22T03:06:34.886Z,5.70
2023-04-22T03:07:34.765Z,5.70
2023-04-22T03:08:34.772Z,6.10
2023-04-22T03:09:34.744Z,5.40
2023-04-22T03:10:34.732Z,5.70
2023-04-22T03:11:34.770Z,5.40
2023-04-22T03:12:34.721Z,5.60
2023-04-22T03:13:34.713Z,5.70
2023-04-22T03:14:34.683Z,5.50
2023-04-22T03:15:34.676Z,5.50
2023-04-22T03:16:34.727Z,5.50
2023-04-22T03:17:34.681Z,5.70
2023-04-22T03:18:34.652Z,5.30
2023-04-22T03:19:34.650Z,5.50
2023-04-22T03:20:34.628Z,5.70
2023-04-22T03:21:34.662Z,5.40
2023-04-22T03:22:34.623Z,5.60
2023-04-22T03:23:34.594Z,5.30
2023-04-22T03:24:34.592Z,5.40
2023-04-22T03:25:34.590Z,5.40
2023-04-22T03:26:34.608Z,5.40
2023-04-22T03:27:34.564Z,5.40
2023-04-22T03:28:34.545Z,5.80
2023-04-22T03:29:34.590Z,5.50
2023-04-22T03:30:34.520Z,5.60
2023-04-22T03:31:34.591Z,5.50
2023-04-22T03:32:34.534Z,5.60
2023-04-22T03:33:34.485Z,5.10
2023-04-22T03:34:36.513Z,5.40
2023-04-22T03:35:34.461Z,5.50
2023-04-22T03:36:34.459Z,5.20
2023-04-22T03:37:34.404Z,5.60
2023-04-22T03:38:34.462Z,5.40
2023-04-22T03:39:34.420Z,5.80
2023-04-22T03:40:34.418Z,5.60
2023-04-22T03:41:34.392Z,5.90
2023-04-22T03:42:34.347Z,6.00
2023-04-22T03:43:34.329Z,6.30
2023-04-22T03:44:34.374Z,6.40
2023-04-22T03:45:34.352Z,6.40
2023-04-22T03:46:34.609Z,6.70
2023-04-22T03:47:34.336Z,6.60
2023-04-22T03:48:34.275Z,6.60
2023-04-22T03:49:34.258Z,6.90
2023-04-22T03:50:34.258Z,6.90
2023-04-22T03:51:34.314Z,7.00
2023-04-22T03:52:34.249Z,7.00
2023-04-22T03:53:34.223Z,7.40
2023-04-22T03:54:34.239Z,7.10
2023-04-22T03:55:34.204Z,6.90
2023-04-22T03:56:34.237Z,6.80
2023-04-22T03:57:34.171Z,6.70
2023-04-22T03:58:34.162Z,6.90
2023-04-22T03:59:34.153Z,6.70
2023-04-22T04:00:34.194Z,6.50
2023-04-22T04:01:34.164Z,6.50
2023-04-22T04:02:34.265Z,6.90
2023-04-22T04:03:34.501Z,6.10
2023-04-22T04:04:34.406Z,6.30
2023-04-22T04:05:34.107Z,6.30
2023-04-22T04:06:34.131Z,6.50
2023-04-22T04:07:34.060Z,6.50
2023-04-22T04:08:34.051Z,6.90
2023-04-22T04:09:34.046Z,6.10
2023-04-22T04:10:34.044Z,6.40
2023-04-22T04:11:34.053Z,6.40
2023-04-22T04:12:34.022Z,6.70
2023-04-22T04:13:34.009Z,6.60
2023-04-22T04:14:33.990Z,6.40
2023-04-22T04:15:34.025Z,6.10
2023-04-22T04:16:34.090Z,6.40
2023-04-22T04:17:33.978Z,6.90
2023-04-22T04:18:33.961Z,6.30
2023-04-22T04:19:33.981Z,6.30
2023-04-22T04:20:33.938Z,6.50
2023-04-22T04:21:33.971Z,6.10
2023-04-22T04:22:33.909Z,6.10
2023-04-22T04:23:33.898Z,6.40
2023-04-22T04:24:33.884Z,6.40
2023-04-22T04:25:33.881Z,6.30
2023-04-22T04:26:33.907Z,6.60
2023-04-22T04:27:33.845Z,6.00
2023-04-22T04:28:33.840Z,6.20
2023-04-22T04:29:33.836Z,6.20
2023-04-22T04:30:34.266Z,6.20
2023-04-22T04:31:33.888Z,6.50
2023-04-22T04:32:33.850Z,6.40
2023-04-22T04:33:33.793Z,6.20
2023-04-22T04:34:33.780Z,6.40
2023-04-22T04:35:33.767Z,6.80
2023-04-22T04:36:33.826Z,6.70
2023-04-22T04:37:33.742Z,6.90
2023-04-22T04:38:33.741Z,7.10
2023-04-22T04:39:33.758Z,7.30
2023-04-22T04:40:33.743Z,7.10
2023-04-22T04:41:33.739Z,7.20
2023-04-22T04:42:33.690Z,7.00
2023-04-22T04:43:33.676Z,7.10
2023-04-22T04:44:33.668Z,7.20
2023-04-22T04:45:33.684Z,6.90
2023-04-22T04:46:33.699Z,7.10
2023-04-22T04:47:33.643Z,7.00
2023-04-22T04:48:33.632Z,6.90
2023-04-22T04:49:33.639Z,6.40
2023-04-22T04:50:33.625Z,6.60
2023-04-22T04:51:33.665Z,6.20
2023-04-22T04:52:33.586Z,6.10
2023-04-22T04:53:33.564Z,6.00
2023-04-22T04:54:33.567Z,6.00
2023-04-22T04:55:33.577Z,6.40
2023-04-22T04:56:33.591Z,6.40
2023-04-22T04:57:33.530Z,5.60
2023-04-22T04:58:33.546Z,6.10
2023-04-22T04:59:33.519Z,6.30
2023-04-22T05:00:33.507Z,6.00
2023-04-22T05:01:33.567Z,5.80
2023-04-22T05:02:33.614Z,5.70
2023-04-22T05:03:33.724Z,6.00
2023-04-22T05:04:33.651Z,6.00
2023-04-22T05:05:33.465Z,5.70
2023-04-22T05:06:33.474Z,5.90
2023-04-22T05:07:33.434Z,5.70
2023-04-22T05:08:33.445Z,5.50
2023-04-22T05:09:33.408Z,5.50
2023-04-22T05:10:33.446Z,5.50
2023-04-22T05:11:33.423Z,5.30
2023-04-22T05:12:33.385Z,5.20
2023-04-22T05:13:33.370Z,5.30
2023-04-22T05:14:33.353Z,5.20
2023-04-22T05:15:33.372Z,5.00
2023-04-22T05:16:33.426Z,4.90
2023-04-22T05:17:33.365Z,5.00
2023-04-22T05:18:33.310Z,4.80
2023-04-22T05:19:33.307Z,4.90
2023-04-22T05:20:35.905Z,4.90
2023-04-22T05:21:33.356Z,4.90
2023-04-22T05:22:33.288Z,5.10
2023-04-22T05:23:33.261Z,4.80
2023-04-22T05:24:33.257Z,4.50
2023-04-22T05:25:33.240Z,4.70
2023-04-22T05:26:33.239Z,4.80
2023-04-22T05:27:33.252Z,4.90
2023-04-22T05:28:33.258Z,4.50
2023-04-22T05:29:33.213Z,4.80
2023-04-22T05:30:33.215Z,4.50
2023-04-22T05:31:33.294Z,4.50
2023-04-22T05:32:33.214Z,4.50
2023-04-22T05:33:33.181Z,4.70
2023-04-22T05:34:33.148Z,4.30
2023-04-22T05:35:33.138Z,4.30
2023-04-22T05:36:33.125Z,4.40
2023-04-22T05:37:33.142Z,4.50
2023-04-22T05:38:33.116Z,4.40
2023-04-22T05:39:33.118Z,4.70
2023-04-22T05:40:33.090Z,4.60
2023-04-22T05:41:33.086Z,4.50
2023-04-22T05:42:33.084Z,4.40
2023-04-22T05:43:33.056Z,4.30
2023-04-22T05:44:33.033Z,4.50
2023-04-22T05:45:33.057Z,4.50
2023-04-22T05:46:33.145Z,4.70
2023-04-22T05:47:33.060Z,4.50
2023-04-22T05:48:33.017Z,4.80
2023-04-22T05:49:32.993Z,4.30
2023-04-22T05:50:32.979Z,4.90
2023-04-22T05:51:33.011Z,4.60
2023-04-22T05:52:32.983Z,4.90
2023-04-22T05:53:32.953Z,4.80
2023-04-22T05:54:32.950Z,5.10
2023-04-22T05:55:32.931Z,4.70
2023-04-22T05:56:32.909Z,4.60
2023-04-22T05:57:32.941Z,4.80
2023-04-22T05:58:32.914Z,4.90
2023-04-22T05:59:32.885Z,5.30
2023-04-22T06:00:32.876Z,5.20
2023-04-22T06:01:32.903Z,5.10
2023-04-22T06:02:33.055Z,5.00
2023-04-22T06:03:33.002Z,5.40
2023-04-22T06:04:35.365Z,5.40
2023-04-22T06:05:32.928Z,5.70
2023-04-22T06:06:32.835Z,5.50
2023-04-22T06:07:32.806Z,5.70
2023-04-22T06:08:32.787Z,5.50
2023-04-22T06:09:32.800Z,5.90
2023-04-22T06:10:32.803Z,6.10
2023-04-22T06:11:32.755Z,5.70
2023-04-22T06:12:32.766Z,5.40
2023-04-22T06:13:32.756Z,5.60
2023-04-22T06:14:32.802Z,5.70
2023-04-22T06:15:32.753Z,5.90
2023-04-22T06:16:32.749Z,5.80
2023-04-22T06:17:32.730Z,5.80
2023-04-22T06:18:32.695Z,5.90
2023-04-22T06:19:32.716Z,5.60
2023-04-22T06:20:32.698Z,5.50
2023-04-22T06:21:32.826Z,5.50
2023-04-22T06:22:32.673Z,5.30
2023-04-22T06:23:32.650Z,5.50
2023-04-22T06:24:32.663Z,5.60
2023-04-22T06:25:32.634Z,5.40
2023-04-22T06:26:32.606Z,5.80
2023-04-22T06:27:32.607Z,5.30
2023-04-22T06:28:32.594Z,5.20
2023-04-22T06:29:32.607Z,5.40
2023-04-22T06:30:32.551Z,5.70
2023-04-22T06:31:32.595Z,5.20
2023-04-22T06:32:32.602Z,5.20
2023-04-22T06:33:32.532Z,5.40
2023-04-22T06:34:32.508Z,5.40
2023-04-22T06:35:32.529Z,4.90
2023-04-22T06:36:32.491Z,5.00
2023-04-22T06:37:32.529Z,5.00
2023-04-22T06:38:32.469Z,5.10
2023-04-22T06:39:33.166Z,5.00
2023-04-22T06:40:32.454Z,4.80
2023-04-22T06:41:32.466Z,5.30
2023-04-22T06:42:32.487Z,5.00
2023-04-22T06:43:32.413Z,4.90
2023-04-22T06:44:32.408Z,4.90
2023-04-22T06:45:32.423Z,4.90
2023-04-22T06:46:32.398Z,5.20
2023-04-22T06:47:32.430Z,5.20
2023-04-22T06:48:32.364Z,4.90
2023-04-22T06:49:32.383Z,4.90
2023-04-22T06:50:32.577Z,5.00
2023-04-22T06:51:32.342Z,4.70
2023-04-22T06:52:32.347Z,5.00
2023-04-22T06:53:32.326Z,5.10
2023-04-22T06:54:32.302Z,4.70
2023-04-22T06:55:32.309Z,4.80
2023-04-22T06:56:32.305Z,5.40
2023-04-22T06:57:32.305Z,4.70
2023-04-22T06:58:32.297Z,4.80
2023-04-22T06:59:32.265Z,4.50
2023-04-22T07:00:32.228Z,4.90
2023-04-22T07:01:32.266Z,4.60
2023-04-22T07:02:32.296Z,4.70
2023-04-22T07:03:32.506Z,4.70
2023-04-22T07:04:32.231Z,4.50
2023-04-22T07:05:32.201Z,4.50
2023-04-22T07:06:35.421Z,5.20
2023-04-22T07:07:32.650Z,4.70
2023-04-22T07:08:32.166Z,4.90
2023-04-22T07:09:32.147Z,4.80
2023-04-22T07:10:32.162Z,5.10
2023-04-22T07:11:32.127Z,4.70
2023-04-22T07:12:32.128Z,5.00
2023-04-22T07:13:32.710Z,4.60
2023-04-22T07:14:32.623Z,5.20
2023-04-22T07:15:32.084Z,4.80
2023-04-22T07:16:32.096Z,4.90
2023-04-22T07:17:32.102Z,4.80
2023-04-22T07:18:32.047Z,5.00
2023-04-22T07:19:33.265Z,4.90
2023-04-22T07:20:32.014Z,4.70
2023-04-22T07:21:32.084Z,5.10
2023-04-22T07:22:32.041Z,4.90
2023-04-22T07:23:32.049Z,4.70
2023-04-22T07:24:31.989Z,4.60
2023-04-22T07:25:31.987Z,4.70
2023-04-22T07:26:31.986Z,4.40
2023-04-22T07:27:32.023Z,4.60
2023-04-22T07:28:31.943Z,4.50
2023-04-22T07:29:31.932Z,4.60
2023-04-22T07:30:31.902Z,4.50
2023-04-22T07:31:31.911Z,4.50
2023-04-22T07:32:31.941Z,4.30
2023-04-22T07:33:32.045Z,4.60
2023-04-22T07:34:31.916Z,4.50
2023-04-22T07:35:31.858Z,5.00
2023-04-22T07:36:31.887Z,4.40
2023-04-22T07:37:31.892Z,4.70
2023-04-22T07:38:31.840Z,4.40
2023-04-22T07:39:31.818Z,4.70
2023-04-22T07:40:31.804Z,4.80
2023-04-22T07:41:31.845Z,4.20
2023-04-22T07:42:31.821Z,4.80
2023-04-22T07:43:31.774Z,4.30
2023-04-22T07:44:31.756Z,4.50
2023-04-22T07:45:31.791Z,4.40
2023-04-22T07:46:31.732Z,4.40
2023-04-22T07:47:31.810Z,4.40
2023-04-22T07:48:31.744Z,4.50
2023-04-22T07:49:31.733Z,4.10
2023-04-22T07:50:31.711Z,4.30
2023-04-22T07:51:31.685Z,4.30
2023-04-22T07:52:31.722Z,4.20
2023-04-22T07:53:31.669Z,4.20
2023-04-22T07:54:31.672Z,4.20
2023-04-22T07:55:31.653Z,4.10
2023-04-22T07:56:31.626Z,3.90
2023-04-22T07:57:31.658Z,4.20
2023-04-22T07:58:31.612Z,4.30
2023-04-22T07:59:31.617Z,4.20
2023-04-22T08:00:31.607Z,3.80
2023-04-22T08:01:31.632Z,4.10
2023-04-22T08:02:31.688Z,4.00
2023-04-22T08:03:31.813Z,4.10
2023-04-22T08:04:31.634Z,3.60
2023-04-22T08:05:31.564Z,4.00
2023-04-22T08:06:31.547Z,3.80
2023-04-22T08:07:33.516Z,4.10
2023-04-22T08:08:31.521Z,3.80
2023-04-22T08:09:31.503Z,3.70
2023-04-22T08:10:31.513Z,3.60
2023-04-22T08:11:31.493Z,3.60
2023-04-22T08:12:31.639Z,3.50
2023-04-22T08:13:31.462Z,3.80
2023-04-22T08:14:31.462Z,3.70
2023-04-22T08:15:31.442Z,3.60
2023-04-22T08:16:31.479Z,3.70
2023-04-22T08:17:31.481Z,3.40
2023-04-22T08:18:31.437Z,3.40
2023-04-22T08:19:31.418Z,3.60
2023-04-22T08:20:31.380Z,3.70
2023-04-22T08:21:31.386Z,3.60
2023-04-22T08:22:31.651Z,3.80
2023-04-22T08:23:31.370Z,3.80
2023-04-22T08:24:31.353Z,3.90
2023-04-22T08:25:31.366Z,3.70
2023-04-22T08:26:31.321Z,3.90
2023-04-22T08:27:31.357Z,3.70
2023-04-22T08:28:31.384Z,3.50
2023-04-22T08:29:31.285Z,3.70
2023-04-22T08:30:31.283Z,3.70
2023-04-22T08:31:31.328Z,3.80
2023-04-22T08:32:31.382Z,3.70
2023-04-22T08:33:31.264Z,3.70
2023-04-22T08:34:31.243Z,3.70
2023-04-22T08:35:31.242Z,3.70
2023-04-22T08:36:31.218Z,4.00
2023-04-22T08:37:31.405Z,3.90
2023-04-22T08:38:31.194Z,3.80
2023-04-22T08:39:31.192Z,3.90
2023-04-22T08:40:31.191Z,3.70
2023-04-22T08:41:31.165Z,3.70
2023-04-22T08:42:31.291Z,3.80
2023-04-22T08:43:31.150Z,3.80
2023-04-22T08:44:31.130Z,3.60
2023-04-22T08:45:31.134Z,4.00
2023-04-22T08:46:31.197Z,3.80
2023-04-22T08:47:31.157Z,4.00
2023-04-22T08:48:31.102Z,3.90
2023-04-22T08:49:31.085Z,3.80
2023-04-22T08:50:31.081Z,4.00
2023-04-22T08:51:31.065Z,4.10
2023-04-22T08:52:31.087Z,4.00
2023-04-22T08:53:31.089Z,4.20
2023-04-22T08:54:31.032Z,3.80
2023-04-22T08:55:31.018Z,4.00
2023-04-22T08:56:31.026Z,4.00
2023-04-22T08:57:31.033Z,4.00
2023-04-22T08:58:31.011Z,3.90
2023-04-22T08:59:31.002Z,3.60
2023-04-22T09:00:30.961Z,4.10
2023-04-22T09:01:30.990Z,4.00
2023-04-22T09:02:30.999Z,3.90
2023-04-22T09:03:31.014Z,3.80
2023-04-22T09:04:31.012Z,3.80
2023-04-22T09:05:30.930Z,4.00
2023-04-22T09:06:40.170Z,4.00
2023-04-22T09:07:30.968Z,3.80
2023-04-22T09:08:30.875Z,4.10
2023-04-22T09:09:30.976Z,3.80
2023-04-22T09:10:32.386Z,3.90
2023-04-22T09:11:30.851Z,4.10
2023-04-22T09:12:30.883Z,3.80
2023-04-22T09:13:30.850Z,3.60
2023-04-22T09:14:30.842Z,3.70
2023-04-22T09:15:30.896Z,3.50
2023-04-22T09:16:30.889Z,4.00
2023-04-22T09:17:30.938Z,3.60
2023-04-22T09:18:30.798Z,3.90
2023-04-22T09:19:30.786Z,4.30
2023-04-22T09:20:30.773Z,3.90
2023-04-22T09:21:30.751Z,3.80
2023-04-22T09:22:30.791Z,3.80
2023-04-22T09:23:30.731Z,4.20
2023-04-22T09:24:30.739Z,3.80
2023-04-22T09:25:30.990Z,3.30
2023-04-22T09:26:30.710Z,3.90
2023-04-22T09:27:30.703Z,3.30
2023-04-22T09:28:30.744Z,3.40
2023-04-22T09:29:30.668Z,3.20
2023-04-22T09:30:30.687Z,3.30
2023-04-22T09:31:30.772Z,3.50
2023-04-22T09:32:30.739Z,3.50
2023-04-22T09:33:30.705Z,3.50
2023-04-22T09:34:30.697Z,3.30
2023-04-22T09:35:30.637Z,3.40
2023-04-22T09:36:30.689Z,3.40
2023-04-22T09:37:39.249Z,3.20
2023-04-22T09:38:30.588Z,3.00
2023-04-22T09:39:30.567Z,3.50
2023-04-22T09:40:30.564Z,4.00
2023-04-22T09:41:30.561Z,3.60
2023-04-22T09:42:30.564Z,3.50
2023-04-22T09:43:30.537Z,3.70
2023-04-22T09:44:30.552Z,3.20
2023-04-22T09:45:30.659Z,3.40
2023-04-22T09:46:30.512Z,3.20
2023-04-22T09:47:30.565Z,3.30
2023-04-22T09:48:30.529Z,3.20
2023-04-22T09:49:30.487Z,3.40
2023-04-22T09:50:30.529Z,3.30
2023-04-22T09:51:30.460Z,3.10
2023-04-22T09:52:30.498Z,3.10
2023-04-22T09:53:30.441Z,3.00
2023-04-22T09:54:30.438Z,3.30
2023-04-22T09:55:30.418Z,3.60
2023-04-22T09:56:30.446Z,3.40
2023-04-22T09:57:30.428Z,3.10
2023-04-22T09:58:30.493Z,2.80
2023-04-22T09:59:30.468Z,3.00
2023-04-22T10:00:30.800Z,2.80
2023-04-22T10:01:30.426Z,2.90
2023-04-22T10:02:30.547Z,2.60
2023-04-22T10:03:30.452Z,2.70
2023-04-22T10:04:30.495Z,2.80
2023-04-22T10:05:30.340Z,2.80
2023-04-22T10:06:30.362Z,3.00
2023-04-22T10:07:30.333Z,2.40
2023-04-22T10:08:30.401Z,2.50
2023-04-22T10:10:45.284Z,2.90
2023-04-22T10:11:46.104Z,3.40
2023-04-22T10:12:46.156Z,3.20
2023-04-22T10:13:46.062Z,3.20
2023-04-22T10:14:46.021Z,3.30
2023-04-22T10:15:46.029Z,3.30
2023-04-22T10:16:46.081Z,2.80
2023-04-22T10:17:46.027Z,3.20
2023-04-22T10:18:45.973Z,2.90
2023-04-22T10:19:46.258Z,2.70
2023-04-22T10:20:45.982Z,3.30
2023-04-22T10:21:45.969Z,3.40
2023-04-22T10:22:45.998Z,3.50
2023-04-22T10:23:45.967Z,3.40
2023-04-22T10:24:45.987Z,3.20
2023-04-22T10:25:46.024Z,3.40
2023-04-22T10:26:46.063Z,3.70
2023-04-22T10:27:45.976Z,3.50
2023-04-22T10:28:46.033Z,3.40
2023-04-22T10:29:45.890Z,3.20
2023-04-22T10:30:46.073Z,3.70
2023-04-22T10:31:45.895Z,3.60
2023-04-22T10:32:45.930Z,3.00
2023-04-22T10:33:45.860Z,2.90
2023-04-22T10:34:45.828Z,3.20
2023-04-22T10:35:45.837Z,3.10
2023-04-22T10:36:45.803Z,3.40
2023-04-22T10:37:45.815Z,3.40
2023-04-22T10:38:45.797Z,3.40
2023-04-22T10:39:45.791Z,2.90
2023-04-22T10:40:45.765Z,3.00
2023-04-22T10:41:45.762Z,3.00
2023-04-22T10:42:45.766Z,2.50
2023-04-22T10:43:45.806Z,2.30
2023-04-22T10:44:45.740Z,2.60
2023-04-22T10:45:45.740Z,2.70
2023-04-22T10:46:45.863Z,2.50
2023-04-22T10:47:45.771Z,2.70
2023-04-22T10:48:45.747Z,3.10
2023-04-22T10:49:45.714Z,2.80
2023-04-22T10:50:45.797Z,2.80
2023-04-22T10:51:45.745Z,2.60
2023-04-22T10:52:45.705Z,2.70
2023-04-22T10:53:45.658Z,2.60
2023-04-22T10:54:45.655Z,2.60
2023-04-22T10:55:45.652Z,2.40
2023-04-22T10:56:51.930Z,2.60
2023-04-22T10:57:45.619Z,2.30
2023-04-22T10:58:45.890Z,2.30
2023-04-22T10:59:45.656Z,2.50
2023-04-22T11:00:53.359Z,2.50
2023-04-22T11:01:45.590Z,2.50
2023-04-22T11:02:45.682Z,2.40
2023-04-22T11:03:45.685Z,2.40
2023-04-22T11:04:45.557Z,2.50
2023-04-22T11:05:45.547Z,2.50
2023-04-22T11:06:45.530Z,2.30
2023-04-22T11:07:45.545Z,2.50
2023-04-22T11:08:45.515Z,2.60
2023-04-22T11:09:45.515Z,2.30
2023-04-22T11:10:45.532Z,2.30
2023-04-22T11:11:45.499Z,2.50
2023-04-22T11:12:45.505Z,2.20
2023-04-22T11:13:45.479Z,2.40
2023-04-22T11:14:45.494Z,2.50
2023-04-22T11:15:45.457Z,2.40
2023-04-22T11:16:45.538Z,2.40
2023-04-22T11:17:45.457Z,2.50
2023-04-22T11:18:45.410Z,2.60
2023-04-22T11:19:45.400Z,2.60
2023-04-22T11:20:45.419Z,2.50
2023-04-22T11:21:45.423Z,2.60
2023-04-22T11:22:45.512Z,2.80
2023-04-22T11:23:45.414Z,2.80
2023-04-22T11:24:45.384Z,2.60
2023-04-22T11:25:45.358Z,2.50
2023-04-22T11:26:45.430Z,2.60
2023-04-22T11:27:45.342Z,2.30
2023-04-22T11:28:45.311Z,2.50
2023-04-22T11:29:45.315Z,2.40
2023-04-22T11:30:45.318Z,2.30
2023-04-22T11:31:45.429Z,2.40
2023-04-22T11:32:45.310Z,2.30
2023-04-22T11:33:45.266Z,2.40
2023-04-22T11:34:45.250Z,2.70
2023-04-22T11:35:45.279Z,2.50
2023-04-22T11:36:45.247Z,2.50
2023-04-22T11:37:45.294Z,2.50
2023-04-22T11:38:45.205Z,2.40
2023-04-22T11:40:07.623Z,2.20
2023-04-22T11:40:47.006Z,2.60
2023-04-22T11:41:45.215Z,2.40
2023-04-22T11:42:45.258Z,2.30
2023-04-22T11:43:45.169Z,2.40
2023-04-22T11:44:45.150Z,2.20
2023-04-22T11:45:45.194Z,2.40
2023-04-22T11:46:45.177Z,2.30
2023-04-22T11:47:45.229Z,2.40
2023-04-22T11:48:45.123Z,2.30
2023-04-22T11:49:45.138Z,2.30
2023-04-22T11:50:45.101Z,2.60
2023-04-22T11:51:45.085Z,2.30
2023-04-22T11:52:45.119Z,2.20
2023-04-22T11:53:45.071Z,2.60
2023-04-22T11:54:45.058Z,2.30
2023-04-22T11:55:45.110Z,2.10
2023-04-22T11:56:45.031Z,2.40
2023-04-22T11:57:45.058Z,2.30
2023-04-22T11:58:45.016Z,2.30
2023-04-22T11:59:45.002Z,2.30
2023-04-22T12:00:45.244Z,2.20
2023-04-22T12:01:45.002Z,2.20
2023-04-22T12:02:45.047Z,2.10
2023-04-22T12:03:45.059Z,2.20
2023-04-22T12:04:44.947Z,2.40
2023-04-22T12:05:44.943Z,2.30
2023-04-22T12:06:44.919Z,2.40
2023-04-22T12:07:44.986Z,2.40
2023-04-22T12:08:44.898Z,2.10
2023-04-22T12:09:44.893Z,2.10
2023-04-22T12:10:44.903Z,2.20
2023-04-22T12:11:44.879Z,2.00
2023-04-22T12:12:44.878Z,2.00
2023-04-22T12:13:44.864Z,2.00
2023-04-22T12:14:44.839Z,2.20
2023-04-22T12:15:44.827Z,2.20
2023-04-22T12:16:44.834Z,2.10
2023-04-22T12:17:44.900Z,2.00
2023-04-22T12:18:44.806Z,2.00
2023-04-22T12:19:44.790Z,2.00
2023-04-22T12:20:44.796Z,2.00
2023-04-22T12:21:44.917Z,2.00
2023-04-22T12:22:44.833Z,2.10
2023-04-22T12:23:44.762Z,2.10
2023-04-22T12:24:44.730Z,1.80
2023-04-22T12:25:44.757Z,2.00
2023-04-22T12:26:44.729Z,2.10
2023-04-22T12:27:44.724Z,2.20
2023-04-22T12:28:44.759Z,2.10
2023-04-22T12:29:44.688Z,2.20
2023-04-22T12:30:44.798Z,2.10
2023-04-22T12:31:44.680Z,2.10
2023-04-22T12:32:44.806Z,2.20
2023-04-22T12:33:44.727Z,2.10
2023-04-22T12:34:44.648Z,2.20
2023-04-22T12:35:44.645Z,2.10
2023-04-22T12:36:44.625Z,2.10
2023-04-22T12:37:44.655Z,2.00
2023-04-22T12:38:44.609Z,2.20
2023-04-22T12:39:44.617Z,2.10
2023-04-22T12:40:44.650Z,2.10
2023-04-22T12:41:44.566Z,2.30
2023-04-22T12:42:44.611Z,2.40
2023-04-22T12:43:44.597Z,2.00
2023-04-22T12:44:44.574Z,2.30
2023-04-22T12:45:44.579Z,2.20
2023-04-22T12:46:44.621Z,2.10
2023-04-22T12:47:44.606Z,2.10
2023-04-22T12:48:44.492Z,2.00
2023-04-22T12:49:46.493Z,2.10
2023-04-22T12:50:44.482Z,2.30
2023-04-22T12:51:44.466Z,1.80
2023-04-22T12:52:44.520Z,2.10
2023-04-22T12:53:44.495Z,2.00
2023-04-22T12:54:44.549Z,2.20
2023-04-22T12:55:46.110Z,1.90
2023-04-22T12:56:44.445Z,1.90
2023-04-22T12:57:44.470Z,1.90
2023-04-22T12:58:44.430Z,1.90
2023-04-22T12:59:44.391Z,1.90
2023-04-22T13:00:44.409Z,2.00
2023-04-22T13:01:44.410Z,1.90
2023-04-22T13:02:44.456Z,2.10
2023-04-22T13:03:44.575Z,2.30
2023-04-22T13:04:44.502Z,2.30
2023-04-22T13:05:44.357Z,1.90
2023-04-22T13:06:44.482Z,1.80
2023-04-22T13:07:45.436Z,2.00
2023-04-22T13:08:44.331Z,2.20
2023-04-22T13:09:44.414Z,2.20
2023-04-22T13:10:44.298Z,2.00
2023-04-22T13:11:44.394Z,2.20
2023-04-22T13:12:44.253Z,2.20
2023-04-22T13:13:44.274Z,2.00
2023-04-22T13:14:44.244Z,2.10
2023-04-22T13:15:44.270Z,1.90
2023-04-22T13:16:44.471Z,2.10
2023-04-22T13:17:46.598Z,2.10
2023-04-22T13:18:44.220Z,1.90
2023-04-22T13:19:44.201Z,1.80
2023-04-22T13:20:44.202Z,2.00